createdAt,value
2022-10-23T00:01:30.091Z,20.55
2022-10-23T00:04:01.064Z,19.65
2022-10-23T00:06:28.187Z,18.88
2022-10-23T00:08:54.854Z,18.63
2022-10-23T00:11:22.763Z,18.65
2022-10-23T00:13:49.643Z,18.65
2022-10-23T00:16:16.382Z,17.95
2022-10-23T00:18:42.779Z,17.20
2022-10-23T00:21:10.698Z,20.58
2022-10-23T00:23:37.183Z,19.38
2022-10-23T00:26:04.413Z,17.10
2022-10-23T00:28:31.234Z,17.10
2022-10-23T00:30:57.611Z,15.20
2022-10-23T00:33:24.101Z,18.23
2022-10-23T00:35:50.522Z,18.05
2022-10-23T00:38:17.052Z,17.95
2022-10-23T00:40:45.306Z,17.67
2022-10-23T00:43:19.087Z,18.45
2022-10-23T00:45:45.487Z,16.67
2022-10-23T00:48:12.180Z,17.27
2022-10-23T00:50:38.661Z,17.77
2022-10-23T00:53:05.326Z,18.08
2022-10-23T00:55:32.575Z,18.88
2022-10-23T00:57:59.038Z,18.85
2022-10-23T01:00:27.208Z,19.05
2022-10-23T01:02:54.613Z,18.35
2022-10-23T01:05:25.095Z,17.92
2022-10-23T01:08:08.059Z,16.52
2022-10-23T01:10:43.245Z,17.80
2022-10-23T01:13:20.474Z,22.60
2022-10-23T01:15:55.994Z,23.35
2022-10-23T01:18:34.623Z,23.00
2022-10-23T01:21:04.243Z,27.65
2022-10-23T01:23:53.904Z,27.50
2022-10-23T01:26:26.433Z,27.10
2022-10-23T01:29:11.551Z,27.38
2022-10-23T01:31:46.902Z,26.52
2022-10-23T01:34:16.195Z,28.20
2022-10-23T01:36:44.427Z,27.00
2022-10-23T01:39:29.813Z,27.30
2022-10-23T01:41:59.963Z,27.20
2022-10-23T01:44:38.930Z,34.42
2022-10-23T01:47:07.300Z,34.40
2022-10-23T01:49:34.071Z,31.00
2022-10-23T01:52:01.853Z,29.27
2022-10-23T01:54:32.635Z,26.55
2022-10-23T01:56:59.351Z,24.85
2022-10-23T01:59:29.631Z,24.58
2022-10-23T02:01:57.227Z,24.88
2022-10-23T02:04:27.066Z,23.70
2022-10-23T02:06:53.688Z,23.92
2022-10-23T02:09:20.306Z,23.08
2022-10-23T02:11:51.618Z,23.52
2022-10-23T02:14:53.490Z,23.20
2022-10-23T02:17:38.707Z,22.75
2022-10-23T02:20:19.835Z,26.13
2022-10-23T02:22:52.159Z,25.10
2022-10-23T02:25:20.629Z,26.42
2022-10-23T02:27:54.510Z,22.60
2022-10-23T02:30:21.196Z,29.20
2022-10-23T02:32:49.283Z,26.48
2022-10-23T02:35:16.613Z,25.60
2022-10-23T02:37:43.241Z,24.20
2022-10-23T02:40:11.129Z,22.70
2022-10-23T02:42:50.042Z,19.83
2022-10-23T02:45:30.962Z,17.40
2022-10-23T02:48:05.003Z,17.23
2022-10-23T02:50:46.663Z,17.17
2022-10-23T02:53:25.554Z,17.42
2022-10-23T02:55:58.306Z,18.05
2022-10-23T02:58:28.852Z,16.58
2022-10-23T03:01:03.163Z,18.30
2022-10-23T03:03:38.195Z,17.90
2022-10-23T03:06:04.823Z,17.40
2022-10-23T03:08:40.443Z,16.90
2022-10-23T03:11:06.964Z,17.02
2022-10-23T03:13:33.327Z,17.23
2022-10-23T03:15:59.771Z,17.58
2022-10-23T03:18:26.147Z,16.50
2022-10-23T03:20:52.535Z,16.55
2022-10-23T03:23:19.006Z,16.67
2022-10-23T03:25:45.423Z,16.92
2022-10-23T03:28:11.899Z,16.70
2022-10-23T03:30:38.397Z,16.38
2022-10-23T03:33:04.984Z,16.70
2022-10-23T03:35:31.631Z,16.90
2022-10-23T03:37:58.282Z,16.45
2022-10-23T03:40:24.708Z,15.60
2022-10-23T03:42:51.154Z,15.88
2022-10-23T03:45:17.613Z,14.88
2022-10-23T03:47:45.358Z,13.90
2022-10-23T03:50:13.667Z,11.65
2022-10-23T03:52:40.461Z,11.55
2022-10-23T03:55:07.345Z,10.77
2022-10-23T03:57:33.771Z,10.35
2022-10-23T04:00:00.181Z,10.13
2022-10-23T04:02:26.768Z,9.73
2022-10-23T04:04:53.291Z,10.65
2022-10-23T04:07:19.753Z,11.32
2022-10-23T04:09:46.144Z,9.98
2022-10-23T04:12:12.567Z,9.85
2022-10-23T04:14:39.248Z,7.93
2022-10-23T04:17:05.805Z,7.82
2022-10-23T04:19:32.187Z,5.90
2022-10-23T04:21:58.689Z,6.07
2022-10-23T04:24:25.332Z,4.57
2022-10-23T04:26:52.266Z,4.10
2022-10-23T04:29:19.328Z,4.43
2022-10-23T04:31:45.707Z,4.10
2022-10-23T04:34:12.161Z,3.47
2022-10-23T04:36:38.586Z,3.45
2022-10-23T04:39:05.017Z,2.90
2022-10-23T04:41:31.491Z,2.75
2022-10-23T04:43:57.890Z,3.13
2022-10-23T04:46:24.339Z,2.72
2022-10-23T04:48:50.867Z,3.25
2022-10-23T04:51:17.367Z,3.15
2022-10-23T04:53:43.916Z,3.03
2022-10-23T04:56:15.021Z,3.45
2022-10-23T04:58:42.004Z,2.50
2022-10-23T05:01:10.699Z,2.95
2022-10-23T05:03:37.919Z,3.10
2022-10-23T05:06:04.831Z,3.08
2022-10-23T05:08:31.432Z,3.30
2022-10-23T05:10:57.881Z,4.20
2022-10-23T05:13:24.294Z,4.72
2022-10-23T05:15:51.815Z,5.35
2022-10-23T05:18:23.815Z,6.15
2022-10-23T05:20:52.000Z,5.55
2022-10-23T05:23:20.242Z,4.93
2022-10-23T05:25:46.676Z,5.00
2022-10-23T05:28:13.107Z,4.70
2022-10-23T05:30:39.791Z,4.80
2022-10-23T05:33:06.331Z,4.97
2022-10-23T05:35:32.823Z,3.53
2022-10-23T05:38:00.321Z,6.10
2022-10-23T05:40:26.855Z,5.28
2022-10-23T05:42:53.381Z,4.07
2022-10-23T05:45:19.863Z,4.90
2022-10-23T05:47:46.797Z,3.63
2022-10-23T05:50:13.394Z,3.92
2022-10-23T05:52:40.103Z,3.67
2022-10-23T05:55:06.979Z,3.00
2022-10-23T05:57:34.078Z,3.20
2022-10-23T06:00:00.621Z,2.60
2022-10-23T06:02:27.275Z,2.95
2022-10-23T06:04:53.914Z,3.10
2022-10-23T06:07:29.186Z,3.00
2022-10-23T06:09:57.947Z,3.20
2022-10-23T06:12:24.516Z,3.55
2022-10-23T06:14:51.970Z,3.47
2022-10-23T06:17:18.610Z,3.70
2022-10-23T06:19:46.251Z,2.88
2022-10-23T06:22:13.246Z,3.15
2022-10-23T06:24:39.747Z,3.65
2022-10-23T06:27:06.130Z,3.30
2022-10-23T06:29:32.625Z,3.20
2022-10-23T06:31:59.067Z,3.20
2022-10-23T06:34:25.592Z,3.20
2022-10-23T06:36:52.088Z,3.05
2022-10-23T06:39:18.514Z,3.17
2022-10-23T06:41:45.525Z,3.10
2022-10-23T06:44:11.925Z,3.25
2022-10-23T06:46:38.404Z,2.78
2022-10-23T06:49:05.007Z,3.28
2022-10-23T06:51:31.406Z,3.88
2022-10-23T06:53:57.839Z,3.50
2022-10-23T06:56:29.081Z,3.63
2022-10-23T06:58:55.749Z,3.80
2022-10-23T07:01:22.571Z,3.03
2022-10-23T07:03:49.218Z,3.65
2022-10-23T07:06:15.673Z,3.13
2022-10-23T07:08:42.134Z,3.17
2022-10-23T07:11:09.784Z,2.88
2022-10-23T07:13:36.544Z,2.97
2022-10-23T07:16:10.319Z,2.33
2022-10-23T07:18:36.773Z,2.78
2022-10-23T07:21:03.204Z,2.40
2022-10-23T07:23:29.790Z,3.58
2022-10-23T07:25:56.212Z,2.70
2022-10-23T07:28:22.602Z,2.55
2022-10-23T07:31:09.674Z,2.42
2022-10-23T07:33:37.030Z,3.25
2022-10-23T07:36:07.701Z,2.60
2022-10-23T07:38:34.311Z,2.95
2022-10-23T07:41:01.042Z,2.33
2022-10-23T07:43:27.586Z,3.30
2022-10-23T07:45:54.163Z,2.70
2022-10-23T07:48:24.128Z,2.58
2022-10-23T07:50:50.846Z,3.10
2022-10-23T07:53:18.924Z,3.25
2022-10-23T07:55:52.380Z,2.75
2022-10-23T07:58:18.997Z,3.13
2022-10-23T08:00:45.536Z,1.85
2022-10-23T08:03:12.781Z,2.55
2022-10-23T08:05:39.326Z,2.53
2022-10-23T08:08:05.728Z,1.98
2022-10-23T08:10:32.328Z,1.92
2022-10-23T08:12:58.858Z,2.10
2022-10-23T08:15:25.315Z,2.20
2022-10-23T08:17:51.745Z,1.15
2022-10-23T08:20:18.158Z,1.30
2022-10-23T08:22:44.575Z,1.17
2022-10-23T08:25:11.077Z,1.27
2022-10-23T08:27:38.428Z,1.42
2022-10-23T08:30:05.113Z,1.77
2022-10-23T08:32:31.542Z,1.55
2022-10-23T08:34:58.139Z,1.48
2022-10-23T08:37:24.729Z,1.50
2022-10-23T08:39:53.376Z,1.25
2022-10-23T08:42:21.853Z,1.13
2022-10-23T08:44:57.155Z,1.20
2022-10-23T08:47:30.014Z,1.27
2022-10-23T08:50:02.556Z,1.25
2022-10-23T08:52:32.059Z,1.67
2022-10-23T08:55:15.011Z,1.40
2022-10-23T08:57:45.439Z,0.82
2022-10-23T09:00:16.135Z,1.25
2022-10-23T09:02:45.143Z,0.90
2022-10-23T09:05:14.093Z,0.80
2022-10-23T09:07:59.536Z,0.80
2022-10-23T09:10:51.395Z,0.77
2022-10-23T09:13:27.432Z,0.88
2022-10-23T09:16:12.594Z,0.65
2022-10-23T09:18:40.476Z,0.68
2022-10-23T09:21:09.452Z,0.63
2022-10-23T09:23:35.948Z,0.73
2022-10-23T09:26:05.392Z,0.85
2022-10-23T09:28:32.643Z,0.90
2022-10-23T09:31:12.030Z,0.90
2022-10-23T09:33:38.843Z,0.80
2022-10-23T09:36:05.442Z,1.00
2022-10-23T09:38:34.073Z,0.70
2022-10-23T09:41:02.910Z,1.10
2022-10-23T09:43:29.437Z,0.85
2022-10-23T09:46:00.308Z,0.65
2022-10-23T09:48:26.707Z,0.65
2022-10-23T09:50:56.273Z,0.60
2022-10-23T09:53:32.006Z,0.50
2022-10-23T09:56:01.755Z,0.40
2022-10-23T09:58:37.902Z,0.50
2022-10-23T10:01:05.166Z,0.60
2022-10-23T10:03:32.235Z,0.43
2022-10-23T10:06:00.473Z,0.40
2022-10-23T10:08:56.140Z,0.50
2022-10-23T10:11:22.742Z,0.60
2022-10-23T10:14:08.042Z,0.40
2022-10-23T10:16:43.630Z,0.55
2022-10-23T10:19:10.004Z,0.45
2022-10-23T10:21:51.055Z,0.60
2022-10-23T10:24:23.829Z,0.40
2022-10-23T10:27:26.017Z,0.40
2022-10-23T10:29:55.390Z,0.40
2022-10-23T10:32:34.763Z,0.40
2022-10-23T10:35:04.292Z,0.40
2022-10-23T10:37:36.920Z,0.30
2022-10-23T10:40:22.262Z,0.30
2022-10-23T10:43:15.058Z,0.40
2022-10-23T10:45:44.339Z,0.40
2022-10-23T10:48:13.931Z,0.32
2022-10-23T10:50:46.523Z,0.30
2022-10-23T10:53:18.334Z,0.40
2022-10-23T10:55:47.722Z,0.30
2022-10-23T10:58:21.434Z,0.40
2022-10-23T11:00:50.402Z,0.50
2022-10-23T11:03:27.503Z,0.43
2022-10-23T11:05:55.160Z,0.43
2022-10-23T11:08:28.963Z,0.32
2022-10-23T11:10:58.546Z,0.55
2022-10-23T11:13:26.956Z,0.40
2022-10-23T11:15:56.561Z,0.30
2022-10-23T11:18:25.707Z,0.40
2022-10-23T11:21:08.498Z,0.40
2022-10-23T11:23:38.255Z,0.40
2022-10-23T11:26:19.587Z,0.30
2022-10-23T11:29:08.641Z,0.40
2022-10-23T11:31:38.187Z,0.40
2022-10-23T11:34:04.632Z,0.40
2022-10-23T11:36:44.496Z,0.40
2022-10-23T11:39:19.419Z,0.30
2022-10-23T11:41:50.387Z,0.50
2022-10-23T11:44:27.588Z,0.40
2022-10-23T11:47:05.286Z,0.40
2022-10-23T11:49:32.156Z,0.30
2022-10-23T11:52:05.611Z,0.60
2022-10-23T11:54:32.535Z,0.30
2022-10-23T11:57:10.304Z,0.40
2022-10-23T11:59:49.374Z,0.30
2022-10-23T12:02:32.222Z,0.52
2022-10-23T12:05:01.906Z,0.40
2022-10-23T12:07:36.565Z,0.40
2022-10-23T12:10:07.504Z,0.40
2022-10-23T12:12:35.335Z,0.32
2022-10-23T12:15:14.692Z,0.40
2022-10-23T12:17:42.510Z,0.30
2022-10-23T12:20:09.832Z,0.30
2022-10-23T12:22:45.374Z,0.30
2022-10-23T12:25:14.834Z,0.30
2022-10-23T12:28:07.614Z,0.30
2022-10-23T12:30:33.998Z,0.30
2022-10-23T12:33:15.924Z,0.30
2022-10-23T12:35:47.762Z,0.30
2022-10-23T12:38:36.419Z,0.30
2022-10-23T12:41:15.140Z,0.30
2022-10-23T12:43:44.071Z,0.30
2022-10-23T12:46:29.541Z,0.30
2022-10-23T12:48:56.844Z,0.40
2022-10-23T12:51:31.306Z,0.30
2022-10-23T12:53:57.976Z,0.30
2022-10-23T12:56:25.506Z,0.30
2022-10-23T12:58:56.811Z,0.30
2022-10-23T13:01:33.710Z,0.32
2022-10-23T13:06:50.448Z,0.20
2022-10-23T13:09:31.707Z,0.20
2022-10-23T13:11:58.699Z,0.20
2022-10-23T13:14:38.266Z,0.30
2022-10-23T13:17:08.340Z,0.30
2022-10-23T13:19:35.288Z,0.28
2022-10-23T13:22:04.001Z,0.20
2022-10-23T13:24:31.238Z,0.20
2022-10-23T13:26:57.809Z,0.30
2022-10-23T13:31:55.659Z,0.30
2022-10-23T13:34:23.694Z,0.30
2022-10-23T13:36:53.685Z,0.20
2022-10-23T13:39:24.128Z,0.30
2022-10-23T13:41:50.706Z,0.28
2022-10-23T13:44:18.583Z,0.20
2022-10-23T13:46:45.181Z,0.30
2022-10-23T13:49:11.636Z,0.30
2022-10-23T13:51:42.643Z,0.30
2022-10-23T13:54:20.203Z,0.30
2022-10-23T13:56:47.156Z,0.30
2022-10-23T13:59:14.439Z,0.20
2022-10-23T14:01:41.059Z,0.40
2022-10-23T14:04:07.787Z,0.30
2022-10-23T14:06:34.748Z,0.30
2022-10-23T14:09:01.398Z,0.30
2022-10-23T14:11:28.084Z,0.30
2022-10-23T14:13:54.554Z,0.40
2022-10-23T14:16:21.634Z,0.30
2022-10-23T14:18:48.140Z,0.30
2022-10-23T14:21:15.969Z,0.43
2022-10-23T14:23:42.555Z,0.40
2022-10-23T14:26:10.868Z,0.45
2022-10-23T14:28:37.785Z,0.40
2022-10-23T14:31:05.384Z,0.40
2022-10-23T14:33:31.793Z,0.40
2022-10-23T14:35:58.351Z,0.40
2022-10-23T14:38:24.963Z,0.40
2022-10-23T14:40:51.355Z,0.60
2022-10-23T14:43:18.063Z,0.45
2022-10-23T14:45:44.583Z,0.40
2022-10-23T14:48:11.105Z,0.50
2022-10-23T14:50:42.299Z,0.50
2022-10-23T14:53:08.766Z,0.40
2022-10-23T14:55:35.212Z,0.50
2022-10-23T14:58:01.638Z,0.40
2022-10-23T15:00:28.176Z,0.50
2022-10-23T15:02:54.582Z,0.45
2022-10-23T15:05:21.077Z,0.40
2022-10-23T15:07:47.520Z,0.40
2022-10-23T15:10:14.025Z,0.50
2022-10-23T15:12:40.757Z,0.50
2022-10-23T15:15:07.817Z,0.50
2022-10-23T15:17:34.542Z,0.63
2022-10-23T15:20:01.012Z,0.60
2022-10-23T15:22:27.558Z,0.70
2022-10-23T15:24:54.106Z,0.60
2022-10-23T15:27:20.559Z,0.70
2022-10-23T15:29:46.958Z,0.70
2022-10-23T15:32:13.458Z,0.90
2022-10-23T15:34:42.790Z,1.17
2022-10-23T15:37:10.123Z,1.83
2022-10-23T15:39:36.781Z,1.75
2022-10-23T15:42:04.606Z,2.85
2022-10-23T15:44:31.804Z,2.63
2022-10-23T15:46:58.450Z,0.93
2022-10-23T15:49:25.653Z,1.20
2022-10-23T15:51:52.645Z,1.02
2022-10-23T15:54:20.053Z,1.20
2022-10-23T15:56:47.404Z,0.88
2022-10-23T15:59:14.455Z,0.75
2022-10-23T16:01:40.983Z,0.93
2022-10-23T16:04:07.629Z,0.80
2022-10-23T16:06:34.308Z,0.60
2022-10-23T16:09:00.855Z,0.70
2022-10-23T16:11:31.921Z,0.50
2022-10-23T16:13:59.362Z,0.80
2022-10-23T16:16:27.228Z,0.60
2022-10-23T16:18:53.917Z,0.90
2022-10-23T16:21:24.937Z,0.60
2022-10-23T16:23:52.087Z,0.63
2022-10-23T16:26:19.094Z,0.60
2022-10-23T16:28:47.233Z,0.60
2022-10-23T16:31:20.283Z,0.90
2022-10-23T16:33:48.159Z,0.63
2022-10-23T16:36:14.825Z,0.60
2022-10-23T16:38:41.399Z,0.60
2022-10-23T16:41:07.902Z,0.60
2022-10-23T16:43:34.527Z,0.60
2022-10-23T16:46:21.291Z,0.73
2022-10-23T16:48:49.118Z,0.93
2022-10-23T16:51:16.448Z,1.02
2022-10-23T16:53:43.242Z,0.60
2022-10-23T16:56:10.849Z,0.60
2022-10-23T16:58:37.319Z,0.70
2022-10-23T17:01:08.079Z,0.65
2022-10-23T17:03:36.021Z,0.95
2022-10-23T17:06:06.095Z,0.63
2022-10-23T17:08:35.173Z,0.60
2022-10-23T17:11:05.722Z,0.60
2022-10-23T17:13:32.733Z,0.68
2022-10-23T17:16:12.743Z,0.80
2022-10-23T17:18:43.659Z,0.80
2022-10-23T17:21:11.028Z,0.70
2022-10-23T17:23:37.451Z,1.00
2022-10-23T17:26:06.644Z,1.05
2022-10-23T17:28:37.870Z,1.00
2022-10-23T17:31:04.295Z,1.00
2022-10-23T17:33:30.937Z,0.85
2022-10-23T17:36:01.058Z,0.90
2022-10-23T17:38:27.492Z,1.40
2022-10-23T17:40:54.082Z,0.98
2022-10-23T17:43:20.480Z,1.33
2022-10-23T17:45:46.916Z,1.13
2022-10-23T17:48:13.722Z,1.38
2022-10-23T17:50:40.976Z,1.08
2022-10-23T17:53:07.691Z,1.55
2022-10-23T17:55:37.754Z,1.75
2022-10-23T17:58:04.130Z,1.77
2022-10-23T18:00:30.533Z,1.40
2022-10-23T18:02:56.990Z,1.00
2022-10-23T18:05:23.914Z,1.23
2022-10-23T18:07:52.286Z,1.10
2022-10-23T18:10:18.835Z,1.55
2022-10-23T18:12:45.959Z,1.50
2022-10-23T18:15:12.356Z,1.05
2022-10-23T18:17:38.943Z,1.13
2022-10-23T18:20:05.817Z,1.70
2022-10-23T18:22:33.429Z,1.77
2022-10-23T18:25:00.555Z,2.35
2022-10-23T18:27:26.963Z,2.67
2022-10-23T18:29:54.119Z,2.20
2022-10-23T18:32:20.737Z,1.88
2022-10-23T18:34:47.504Z,1.70
2022-10-23T18:37:13.904Z,1.90
2022-10-23T18:39:40.559Z,1.92
2022-10-23T18:42:07.053Z,2.60
2022-10-23T18:44:33.523Z,2.85
2022-10-23T18:47:00.037Z,3.47
2022-10-23T18:49:26.682Z,3.38
2022-10-23T18:51:53.154Z,3.45
2022-10-23T18:54:20.676Z,3.58
2022-10-23T18:56:47.185Z,2.85
2022-10-23T18:59:15.701Z,2.58
2022-10-23T19:01:42.499Z,1.40
2022-10-23T19:04:11.704Z,1.00
2022-10-23T19:06:38.698Z,1.77
2022-10-23T19:09:06.801Z,1.77
2022-10-23T19:11:33.211Z,1.35
2022-10-23T19:13:59.611Z,1.80
2022-10-23T19:16:30.655Z,1.48
2022-10-23T19:18:58.546Z,1.55
2022-10-23T19:21:31.147Z,1.00
2022-10-23T19:24:01.410Z,1.75
2022-10-23T19:26:29.531Z,3.30
2022-10-23T19:28:56.023Z,4.00
2022-10-23T19:31:23.632Z,4.93
2022-10-23T19:33:50.421Z,5.03
2022-10-23T19:36:19.706Z,5.10
2022-10-23T19:38:48.972Z,4.63
2022-10-23T19:41:17.155Z,4.32
2022-10-23T19:43:43.697Z,4.40
2022-10-23T19:46:12.254Z,5.10
2022-10-23T19:48:42.533Z,5.03
2022-10-23T19:51:09.514Z,5.55
2022-10-23T19:53:36.457Z,6.20
2022-10-23T19:56:04.136Z,6.60
2022-10-23T19:58:30.574Z,6.43
2022-10-23T20:00:57.186Z,6.63
2022-10-23T20:03:23.734Z,6.40
2022-10-23T20:05:50.210Z,6.32
2022-10-23T20:08:16.826Z,5.70
2022-10-23T20:10:43.754Z,7.03
2022-10-23T20:13:19.311Z,5.95
2022-10-23T20:15:46.583Z,6.05
2022-10-23T20:18:12.975Z,6.55
2022-10-23T20:20:40.360Z,6.43
2022-10-23T20:23:06.795Z,6.55
2022-10-23T20:25:33.302Z,6.03
2022-10-23T20:27:59.762Z,6.75
2022-10-23T20:30:26.363Z,6.05
2022-10-23T20:32:52.954Z,5.95
2022-10-23T20:35:19.384Z,7.10
2022-10-23T20:37:46.288Z,7.65
2022-10-23T20:40:13.110Z,8.52
2022-10-23T20:42:39.639Z,7.43
2022-10-23T20:45:06.390Z,6.60
2022-10-23T20:47:32.889Z,7.05
2022-10-23T20:49:59.332Z,6.72
2022-10-23T20:52:27.624Z,7.30
2022-10-23T20:54:54.083Z,6.78
2022-10-23T20:57:21.437Z,5.90
2022-10-23T20:59:48.142Z,5.93
2022-10-23T21:02:14.679Z,6.30
2022-10-23T21:04:41.365Z,6.65
2022-10-23T21:07:10.480Z,5.97
2022-10-23T21:09:38.083Z,6.97
2022-10-23T21:12:06.667Z,7.05
2022-10-23T21:14:33.486Z,5.95
2022-10-23T21:17:00.027Z,6.90
2022-10-23T21:19:26.539Z,6.57
2022-10-23T21:21:54.438Z,6.85
2022-10-23T21:24:20.919Z,6.43
2022-10-23T21:26:47.524Z,5.82
2022-10-23T21:29:19.107Z,5.75
2022-10-23T21:31:51.333Z,6.15
2022-10-23T21:34:17.879Z,5.63
2022-10-23T21:37:10.862Z,5.75
2022-10-23T21:39:32.840Z,6.60
2022-10-23T21:41:59.297Z,6.35
2022-10-23T21:44:25.882Z,6.40
2022-10-23T21:46:52.514Z,6.15
2022-10-23T21:49:19.003Z,6.78
2022-10-23T21:51:45.609Z,6.25
2022-10-23T21:54:14.823Z,6.80
2022-10-23T21:56:45.271Z,6.97
2022-10-23T21:59:16.581Z,7.60
2022-10-23T22:01:44.595Z,7.40
2022-10-23T22:04:11.696Z,6.90
2022-10-23T22:06:38.954Z,6.55
2022-10-23T22:09:05.578Z,6.80
2022-10-23T22:11:32.095Z,6.45
2022-10-23T22:13:58.604Z,6.53
2022-10-23T22:16:25.011Z,6.68
2022-10-23T22:18:51.468Z,6.20
2022-10-23T22:21:20.073Z,6.53
2022-10-23T22:23:49.294Z,6.78
2022-10-23T22:26:21.071Z,6.72
2022-10-23T22:28:47.526Z,6.47
2022-10-23T22:31:15.250Z,6.88
2022-10-23T22:33:41.786Z,6.88
2022-10-23T22:36:08.331Z,7.43
2022-10-23T22:38:34.774Z,17.17
2022-10-23T22:41:02.198Z,25.38
2022-10-23T22:43:29.196Z,22.58
2022-10-23T22:46:21.778Z,21.75
2022-10-23T22:48:48.348Z,21.13
2022-10-23T22:51:15.958Z,20.63
2022-10-23T22:53:42.896Z,17.73
2022-10-23T22:56:10.814Z,15.70
2022-10-23T22:58:37.288Z,17.20
2022-10-23T23:01:12.143Z,16.10
2022-10-23T23:03:38.896Z,12.90
2022-10-23T23:06:06.470Z,12.45
2022-10-23T23:08:33.165Z,11.18
2022-10-23T23:10:59.872Z,12.02
2022-10-23T23:13:26.584Z,12.75
2022-10-23T23:15:53.606Z,11.75
2022-10-23T23:18:20.349Z,12.38
2022-10-23T23:20:47.238Z,12.90
2022-10-23T23:23:14.242Z,13.07
2022-10-23T23:25:44.713Z,13.55
2022-10-23T23:28:11.524Z,13.50
2022-10-23T23:30:38.919Z,12.98
2022-10-23T23:33:05.439Z,13.48
2022-10-23T23:35:31.910Z,12.90
2022-10-23T23:37:58.542Z,13.00
2022-10-23T23:40:24.991Z,12.63
2022-10-23T23:42:51.409Z,13.52
2022-10-23T23:45:18.043Z,12.73
2022-10-23T23:47:44.697Z,12.50
2022-10-23T23:50:11.898Z,12.27
2022-10-23T23:52:38.749Z,12.30
2022-10-23T23:55:05.853Z,12.60
2022-10-23T23:57:32.688Z,12.88
2022-10-23T23:59:59.187Z,12.95
